sensor_id;sensor_type;location;lat;lon;timestamp;pressure;altitude;pressure_sealevel;temperature;humidity
64388;BME280;50709;52.648;4.764;2023-02-03T00:01:02;102363.47;;;14.56;60.86
64388;BME280;50709;52.648;4.764;2023-02-03T00:03:27;102370.84;;;14.93;60.82
64388;BME280;50709;52.648;4.764;2023-02-03T00:05:53;102366.13;;;14.61;59.92
64388;BME280;50709;52.648;4.764;2023-02-03T00:08:20;102356.69;;;14.80;61.70
64388;BME280;50709;52.648;4.764;2023-02-03T00:10:46;102367.28;;;14.88;60.46
64388;BME280;50709;52.648;4.764;2023-02-03T00:13:11;102367.28;;;14.85;60.67
64388;BME280;50709;52.648;4.764;2023-02-03T00:15:38;102375.03;;;14.72;60.74
64388;BME280;50709;52.648;4.764;2023-02-03T00:18:03;102387.50;;;14.93;60.73
64388;BME280;50709;52.648;4.764;2023-02-03T00:20:29;102388.22;;;14.75;60.17
64388;BME280;50709;52.648;4.764;2023-02-03T00:23:02;102392.53;;;14.69;61.66
64388;BME280;50709;52.648;4.764;2023-02-03T00:25:27;102388.75;;;14.46;61.31
64388;BME280;50709;52.648;4.764;2023-02-03T00:27:53;102403.06;;;14.70;60.99
64388;BME280;50709;52.648;4.764;2023-02-03T00:30:18;102405.69;;;14.69;61.69
64388;BME280;50709;52.648;4.764;2023-02-03T00:32:44;102386.22;;;14.53;60.69
64388;BME280;50709;52.648;4.764;2023-02-03T00:35:09;102392.28;;;14.45;61.28
64388;BME280;50709;52.648;4.764;2023-02-03T00:37:35;102364.25;;;14.51;61.92
64388;BME280;50709;52.648;4.764;2023-02-03T00:40:02;102365.09;;;14.45;61.49
64388;BME280;50709;52.648;4.764;2023-02-03T00:42:28;102376.63;;;14.56;60.38
64388;BME280;50709;52.648;4.764;2023-02-03T00:44:53;102377.19;;;14.29;61.67
64388;BME280;50709;52.648;4.764;2023-02-03T00:47:18;102366.09;;;14.56;61.76
64388;BME280;50709;52.648;4.764;2023-02-03T00:49:44;102361.59;;;14.46;62.47
64388;BME280;50709;52.648;4.764;2023-02-03T00:52:09;102375.72;;;14.57;62.83
64388;BME280;50709;52.648;4.764;2023-02-03T00:54:35;102357.44;;;14.65;61.70
64388;BME280;50709;52.648;4.764;2023-02-03T00:57:00;102355.50;;;14.49;61.81
64388;BME280;50709;52.648;4.764;2023-02-03T00:59:25;102349.31;;;14.45;61.99
64388;BME280;50709;52.648;4.764;2023-02-03T01:01:51;102336.06;;;14.34;62.16
64388;BME280;50709;52.648;4.764;2023-02-03T01:04:16;102355.88;;;14.04;62.96
64388;BME280;50709;52.648;4.764;2023-02-03T01:06:41;102323.84;;;14.36;62.01
64388;BME280;50709;52.648;4.764;2023-02-03T01:09:07;102350.84;;;14.23;61.98
64388;BME280;50709;52.648;4.764;2023-02-03T01:11:32;102343.91;;;14.29;62.21
64388;BME280;50709;52.648;4.764;2023-02-03T01:13:58;102348.13;;;14.15;61.93
64388;BME280;50709;52.648;4.764;2023-02-03T01:16:27;102345.72;;;14.35;61.98
64388;BME280;50709;52.648;4.764;2023-02-03T01:18:54;102342.50;;;13.83;62.02
64388;BME280;50709;52.648;4.764;2023-02-03T01:21:23;102336.97;;;14.36;62.33
64388;BME280;50709;52.648;4.764;2023-02-03T01:23:49;102320.88;;;14.04;62.98
64388;BME280;50709;52.648;4.764;2023-02-03T01:26:17;102334.00;;;14.04;62.46
64388;BME280;50709;52.648;4.764;2023-02-03T01:28:43;102318.88;;;13.86;61.92
64388;BME280;50709;52.648;4.764;2023-02-03T01:31:19;102333.44;;;14.33;62.34
64388;BME280;50709;52.648;4.764;2023-02-03T01:33:45;102297.09;;;13.93;62.21
64388;BME280;50709;52.648;4.764;2023-02-03T01:36:13;102272.97;;;14.29;61.87
64388;BME280;50709;52.648;4.764;2023-02-03T01:38:39;102315.75;;;14.19;63.24
64388;BME280;50709;52.648;4.764;2023-02-03T01:41:08;102258.19;;;13.59;62.86
64388;BME280;50709;52.648;4.764;2023-02-03T01:43:41;102340.81;;;13.88;62.27
64388;BME280;50709;52.648;4.764;2023-02-03T01:49:12;102278.22;;;13.51;62.54
64388;BME280;50709;52.648;4.764;2023-02-03T01:51:41;102320.53;;;13.77;62.35
64388;BME280;50709;52.648;4.764;2023-02-03T01:54:13;102317.19;;;13.91;63.56
64388;BME280;50709;52.648;4.764;2023-02-03T01:56:44;102321.75;;;14.07;63.17
64388;BME280;50709;52.648;4.764;2023-02-03T01:59:11;102318.03;;;13.87;63.77
64388;BME280;50709;52.648;4.764;2023-02-03T02:01:39;102326.25;;;14.15;63.23
64388;BME280;50709;52.648;4.764;2023-02-03T02:04:05;102331.28;;;13.96;63.30
64388;BME280;50709;52.648;4.764;2023-02-03T02:06:30;102312.66;;;13.77;62.67
64388;BME280;50709;52.648;4.764;2023-02-03T02:08:57;102313.84;;;14.04;63.09
64388;BME280;50709;52.648;4.764;2023-02-03T02:11:25;102303.00;;;13.76;63.23
64388;BME280;50709;52.648;4.764;2023-02-03T02:13:52;102325.31;;;14.09;62.28
64388;BME280;50709;52.648;4.764;2023-02-03T02:16:32;102334.13;;;14.15;62.23
64388;BME280;50709;52.648;4.764;2023-02-03T02:19:40;102332.22;;;14.01;61.43
64388;BME280;50709;52.648;4.764;2023-02-03T02:25:45;102326.19;;;14.11;63.45
64388;BME280;50709;52.648;4.764;2023-02-03T02:41:22;102285.91;;;14.11;63.69
64388;BME280;50709;52.648;4.764;2023-02-03T02:43:58;102297.00;;;13.84;64.19
64388;BME280;50709;52.648;4.764;2023-02-03T02:46:38;102301.28;;;13.77;63.38
64388;BME280;50709;52.648;4.764;2023-02-03T02:51:40;102312.03;;;13.95;62.96
64388;BME280;50709;52.648;4.764;2023-02-03T02:54:11;102285.34;;;13.63;63.80
64388;BME280;50709;52.648;4.764;2023-02-03T02:56:39;102262.78;;;13.79;63.67
64388;BME280;50709;52.648;4.764;2023-02-03T02:59:07;102286.28;;;13.68;62.85
64388;BME280;50709;52.648;4.764;2023-02-03T03:01:33;102301.59;;;14.05;64.24
64388;BME280;50709;52.648;4.764;2023-02-03T03:04:03;102302.31;;;13.90;63.80
64388;BME280;50709;52.648;4.764;2023-02-03T03:06:52;102301.03;;;13.57;63.10
64388;BME280;50709;52.648;4.764;2023-02-03T03:09:39;102290.44;;;13.51;63.50
64388;BME280;50709;52.648;4.764;2023-02-03T03:14:31;102287.66;;;14.10;63.44
64388;BME280;50709;52.648;4.764;2023-02-03T03:17:05;102285.56;;;13.82;63.88
64388;BME280;50709;52.648;4.764;2023-02-03T03:19:38;102281.41;;;13.99;64.13
64388;BME280;50709;52.648;4.764;2023-02-03T03:22:09;102278.53;;;13.79;63.92
64388;BME280;50709;52.648;4.764;2023-02-03T03:24:47;102281.72;;;13.53;62.76
64388;BME280;50709;52.648;4.764;2023-02-03T03:27:18;102277.38;;;13.54;63.44
64388;BME280;50709;52.648;4.764;2023-02-03T03:29:48;102294.03;;;13.59;64.54
64388;BME280;50709;52.648;4.764;2023-02-03T03:32:15;102291.72;;;13.82;64.56
64388;BME280;50709;52.648;4.764;2023-02-03T03:34:41;102270.59;;;13.73;63.33
64388;BME280;50709;52.648;4.764;2023-02-03T03:37:21;102270.13;;;13.36;63.73
64388;BME280;50709;52.648;4.764;2023-02-03T03:39:53;102303.13;;;13.84;64.11
64388;BME280;50709;52.648;4.764;2023-02-03T03:42:44;102322.44;;;13.88;63.13
64388;BME280;50709;52.648;4.764;2023-02-03T03:47:50;102268.75;;;13.66;64.05
64388;BME280;50709;52.648;4.764;2023-02-03T03:50:40;102308.19;;;13.69;63.48
64388;BME280;50709;52.648;4.764;2023-02-03T03:53:09;102321.31;;;13.69;63.47
64388;BME280;50709;52.648;4.764;2023-02-03T03:55:38;102327.53;;;13.75;64.37
64388;BME280;50709;52.648;4.764;2023-02-03T03:58:07;102332.81;;;13.77;64.36
64388;BME280;50709;52.648;4.764;2023-02-03T04:00:37;102293.19;;;13.60;62.88
64388;BME280;50709;52.648;4.764;2023-02-03T04:03:09;102318.72;;;13.70;63.81
64388;BME280;50709;52.648;4.764;2023-02-03T04:05:37;102287.34;;;13.83;63.31
64388;BME280;50709;52.648;4.764;2023-02-03T04:08:03;102309.03;;;13.66;62.05
64388;BME280;50709;52.648;4.764;2023-02-03T04:10:39;102285.31;;;13.61;62.70
64388;BME280;50709;52.648;4.764;2023-02-03T04:13:06;102281.84;;;13.62;63.60
64388;BME280;50709;52.648;4.764;2023-02-03T04:15:32;102308.38;;;13.86;64.05
64388;BME280;50709;52.648;4.764;2023-02-03T04:17:58;102295.13;;;13.76;63.47
64388;BME280;50709;52.648;4.764;2023-02-03T04:20:27;102320.44;;;13.70;64.07
64388;BME280;50709;52.648;4.764;2023-02-03T04:22:53;102288.06;;;13.71;64.24
64388;BME280;50709;52.648;4.764;2023-02-03T04:25:18;102299.56;;;13.80;63.94
64388;BME280;50709;52.648;4.764;2023-02-03T04:27:44;102296.09;;;13.85;64.52
64388;BME280;50709;52.648;4.764;2023-02-03T04:30:10;102288.03;;;13.68;64.04
64388;BME280;50709;52.648;4.764;2023-02-03T04:32:37;102299.53;;;13.79;63.89
64388;BME280;50709;52.648;4.764;2023-02-03T04:35:03;102300.59;;;13.92;64.15
64388;BME280;50709;52.648;4.764;2023-02-03T04:37:29;102304.03;;;13.86;64.32
64388;BME280;50709;52.648;4.764;2023-02-03T04:39:55;102288.06;;;13.69;64.34
64388;BME280;50709;52.648;4.764;2023-02-03T04:42:22;102298.31;;;13.51;63.99
64388;BME280;50709;52.648;4.764;2023-02-03T04:44:47;102277.88;;;13.97;63.62
64388;BME280;50709;52.648;4.764;2023-02-03T04:47:13;102285.34;;;13.63;63.88
64388;BME280;50709;52.648;4.764;2023-02-03T04:49:38;102292.38;;;13.66;63.88
64388;BME280;50709;52.648;4.764;2023-02-03T04:52:04;102283.66;;;13.68;65.10
64388;BME280;50709;52.648;4.764;2023-02-03T04:54:30;102310.72;;;13.61;63.71
64388;BME280;50709;52.648;4.764;2023-02-03T04:56:55;102246.75;;;13.53;64.16
64388;BME280;50709;52.648;4.764;2023-02-03T04:59:21;102291.53;;;13.68;63.52
64388;BME280;50709;52.648;4.764;2023-02-03T05:01:46;102293.56;;;13.89;63.63
64388;BME280;50709;52.648;4.764;2023-02-03T05:04:12;102292.25;;;13.55;63.74
64388;BME280;50709;52.648;4.764;2023-02-03T05:06:37;102287.06;;;13.58;64.37
64388;BME280;50709;52.648;4.764;2023-02-03T05:09:03;102290.72;;;13.72;63.19
64388;BME280;50709;52.648;4.764;2023-02-03T05:11:28;102281.09;;;13.71;64.25
64388;BME280;50709;52.648;4.764;2023-02-03T05:13:54;102291.28;;;13.48;64.60
64388;BME280;50709;52.648;4.764;2023-02-03T05:16:19;102297.38;;;13.45;63.79
64388;BME280;50709;52.648;4.764;2023-02-03T05:18:45;102307.38;;;13.74;64.43
64388;BME280;50709;52.648;4.764;2023-02-03T05:21:10;102312.50;;;13.65;64.48
64388;BME280;50709;52.648;4.764;2023-02-03T05:23:35;102305.59;;;13.70;63.62
64388;BME280;50709;52.648;4.764;2023-02-03T05:26:01;102321.09;;;14.24;63.32
64388;BME280;50709;52.648;4.764;2023-02-03T05:28:26;102317.16;;;14.69;61.48
64388;BME280;50709;52.648;4.764;2023-02-03T05:30:53;102317.50;;;15.16;60.79
64388;BME280;50709;52.648;4.764;2023-02-03T05:33:18;102312.44;;;15.50;59.12
64388;BME280;50709;52.648;4.764;2023-02-03T05:35:43;102309.13;;;15.83;58.13
64388;BME280;50709;52.648;4.764;2023-02-03T05:38:09;102310.78;;;15.72;57.19
64388;BME280;50709;52.648;4.764;2023-02-03T05:40:34;102322.34;;;15.98;57.34
64388;BME280;50709;52.648;4.764;2023-02-03T05:43:18;102329.44;;;16.20;57.00
64388;BME280;50709;52.648;4.764;2023-02-03T05:45:44;102330.34;;;16.50;56.05
64388;BME280;50709;52.648;4.764;2023-02-03T05:48:09;102306.63;;;16.96;54.70
64388;BME280;50709;52.648;4.764;2023-02-03T05:50:36;102329.50;;;16.89;54.75
64388;BME280;50709;52.648;4.764;2023-02-03T05:53:03;102350.53;;;17.54;53.93
64388;BME280;50709;52.648;4.764;2023-02-03T05:55:30;102322.44;;;17.27;50.59
64388;BME280;50709;52.648;4.764;2023-02-03T05:57:56;102317.78;;;17.91;52.26
64388;BME280;50709;52.648;4.764;2023-02-03T06:00:22;102314.47;;;17.39;52.42
64388;BME280;50709;52.648;4.764;2023-02-03T06:02:56;102323.00;;;18.15;52.13
64388;BME280;50709;52.648;4.764;2023-02-03T06:05:22;102330.09;;;18.09;52.15
64388;BME280;50709;52.648;4.764;2023-02-03T06:07:48;102324.81;;;18.07;52.04
64388;BME280;50709;52.648;4.764;2023-02-03T06:10:14;102316.75;;;18.29;51.25
64388;BME280;50709;52.648;4.764;2023-02-03T06:12:40;102328.06;;;18.49;51.05
64388;BME280;50709;52.648;4.764;2023-02-03T06:15:06;102350.41;;;17.85;52.21
64388;BME280;50709;52.648;4.764;2023-02-03T06:17:32;102344.22;;;17.98;52.03
64388;BME280;50709;52.648;4.764;2023-02-03T06:19:58;102335.84;;;18.70;50.66
64388;BME280;50709;52.648;4.764;2023-02-03T06:22:23;102329.94;;;18.33;50.86
64388;BME280;50709;52.648;4.764;2023-02-03T06:24:49;102330.53;;;18.73;50.54
64388;BME280;50709;52.648;4.764;2023-02-03T06:27:14;102323.47;;;18.75;49.89
64388;BME280;50709;52.648;4.764;2023-02-03T06:29:41;102338.34;;;18.85;50.39
64388;BME280;50709;52.648;4.764;2023-02-03T06:32:07;102336.34;;;19.15;49.51
64388;BME280;50709;52.648;4.764;2023-02-03T06:34:32;102328.59;;;18.95;48.98
64388;BME280;50709;52.648;4.764;2023-02-03T06:36:58;102332.06;;;19.00;49.00
64388;BME280;50709;52.648;4.764;2023-02-03T06:39:23;102315.78;;;18.39;51.43
64388;BME280;50709;52.648;4.764;2023-02-03T06:41:49;102325.94;;;18.93;50.14
64388;BME280;50709;52.648;4.764;2023-02-03T06:44:16;102324.00;;;19.15;49.64
64388;BME280;50709;52.648;4.764;2023-02-03T06:46:42;102326.19;;;18.61;51.13
64388;BME280;50709;52.648;4.764;2023-02-03T06:49:07;102329.09;;;19.34;48.37
64388;BME280;50709;52.648;4.764;2023-02-03T06:51:32;102323.69;;;19.42;48.56
64388;BME280;50709;52.648;4.764;2023-02-03T06:53:58;102321.47;;;19.02;49.34
64388;BME280;50709;52.648;4.764;2023-02-03T06:56:23;102324.72;;;19.28;49.31
64388;BME280;50709;52.648;4.764;2023-02-03T06:58:49;102327.47;;;19.19;49.63
64388;BME280;50709;52.648;4.764;2023-02-03T07:01:14;102318.19;;;19.60;47.95
64388;BME280;50709;52.648;4.764;2023-02-03T07:03:40;102313.44;;;19.89;47.79
64388;BME280;50709;52.648;4.764;2023-02-03T07:06:05;102296.13;;;19.58;48.18
64388;BME280;50709;52.648;4.764;2023-02-03T07:08:31;102307.22;;;19.16;48.78
64388;BME280;50709;52.648;4.764;2023-02-03T07:10:56;102305.13;;;19.43;48.37
64388;BME280;50709;52.648;4.764;2023-02-03T07:13:21;102310.03;;;18.99;49.53
64388;BME280;50709;52.648;4.764;2023-02-03T07:15:47;102321.28;;;19.20;47.85
64388;BME280;50709;52.648;4.764;2023-02-03T07:18:12;102314.00;;;19.42;47.32
64388;BME280;50709;52.648;4.764;2023-02-03T07:20:37;102317.50;;;19.43;47.48
64388;BME280;50709;52.648;4.764;2023-02-03T07:23:03;102328.13;;;19.41;46.00
64388;BME280;50709;52.648;4.764;2023-02-03T07:25:29;102340.94;;;18.96;48.81
64388;BME280;50709;52.648;4.764;2023-02-03T07:27:55;102341.84;;;18.93;50.05
64388;BME280;50709;52.648;4.764;2023-02-03T07:30:20;102347.94;;;19.05;49.34
64388;BME280;50709;52.648;4.764;2023-02-03T07:32:47;102364.25;;;19.52;46.89
64388;BME280;50709;52.648;4.764;2023-02-03T07:35:13;102352.59;;;19.63;48.29
64388;BME280;50709;52.648;4.764;2023-02-03T07:37:39;102363.91;;;18.94;49.45
64388;BME280;50709;52.648;4.764;2023-02-03T07:40:04;102351.72;;;19.63;48.07
64388;BME280;50709;52.648;4.764;2023-02-03T07:42:30;102378.00;;;19.85;47.86
64388;BME280;50709;52.648;4.764;2023-02-03T07:44:55;102382.13;;;19.28;48.82
64388;BME280;50709;52.648;4.764;2023-02-03T07:47:20;102360.28;;;19.06;49.25
64388;BME280;50709;52.648;4.764;2023-02-03T07:49:46;102368.50;;;18.67;50.58
64388;BME280;50709;52.648;4.764;2023-02-03T07:52:11;102372.69;;;18.99;49.89
64388;BME280;50709;52.648;4.764;2023-02-03T07:54:36;102375.22;;;19.08;48.95
64388;BME280;50709;52.648;4.764;2023-02-03T07:57:02;102369.03;;;19.11;49.36
64388;BME280;50709;52.648;4.764;2023-02-03T07:59:27;102384.00;;;19.97;48.14
64388;BME280;50709;52.648;4.764;2023-02-03T08:01:52;102384.38;;;19.66;48.46
64388;BME280;50709;52.648;4.764;2023-02-03T08:04:21;102386.13;;;19.67;48.66
64388;BME280;50709;52.648;4.764;2023-02-03T08:06:46;102397.59;;;19.70;48.56
64388;BME280;50709;52.648;4.764;2023-02-03T08:09:11;102391.03;;;19.17;49.97
64388;BME280;50709;52.648;4.764;2023-02-03T08:11:37;102400.06;;;18.98;49.98
64388;BME280;50709;52.648;4.764;2023-02-03T08:14:02;102408.56;;;19.34;48.98
64388;BME280;50709;52.648;4.764;2023-02-03T08:16:28;102388.00;;;19.58;48.63
64388;BME280;50709;52.648;4.764;2023-02-03T08:18:53;102401.19;;;19.64;48.22
64388;BME280;50709;52.648;4.764;2023-02-03T08:21:19;102399.84;;;19.23;46.56
64388;BME280;50709;52.648;4.764;2023-02-03T08:23:44;102427.50;;;19.84;48.26
64388;BME280;50709;52.648;4.764;2023-02-03T08:26:10;102444.41;;;20.45;46.86
64388;BME280;50709;52.648;4.764;2023-02-03T08:28:35;102431.56;;;20.78;46.08
64388;BME280;50709;52.648;4.764;2023-02-03T08:31:00;102419.19;;;20.12;47.45
64388;BME280;50709;52.648;4.764;2023-02-03T08:33:26;102443.06;;;20.12;47.29
64388;BME280;50709;52.648;4.764;2023-02-03T08:35:52;102429.22;;;19.90;47.66
64388;BME280;50709;52.648;4.764;2023-02-03T08:38:18;102457.56;;;19.78;48.13
64388;BME280;50709;52.648;4.764;2023-02-03T08:40:43;102440.25;;;20.24;46.93
64388;BME280;50709;52.648;4.764;2023-02-03T08:43:09;102453.84;;;19.98;47.10
64388;BME280;50709;52.648;4.764;2023-02-03T08:45:35;102475.94;;;19.98;47.97
64388;BME280;50709;52.648;4.764;2023-02-03T08:48:00;102460.66;;;20.21;46.46
64388;BME280;50709;52.648;4.764;2023-02-03T08:50:26;102467.56;;;20.34;47.35
64388;BME280;50709;52.648;4.764;2023-02-03T08:52:51;102441.47;;;19.98;46.56
64388;BME280;50709;52.648;4.764;2023-02-03T08:55:17;102469.19;;;19.68;48.76
64388;BME280;50709;52.648;4.764;2023-02-03T08:57:42;102449.09;;;19.44;48.01
64388;BME280;50709;52.648;4.764;2023-02-03T09:00:09;102461.97;;;19.79;48.28
64388;BME280;50709;52.648;4.764;2023-02-03T09:02:34;102476.66;;;20.14;47.13
64388;BME280;50709;52.648;4.764;2023-02-03T09:05:00;102484.00;;;19.88;48.60
64388;BME280;50709;52.648;4.764;2023-02-03T09:07:25;102483.97;;;19.94;48.16
64388;BME280;50709;52.648;4.764;2023-02-03T09:09:51;102471.69;;;19.83;48.49
64388;BME280;50709;52.648;4.764;2023-02-03T09:12:16;102440.97;;;19.62;48.61
64388;BME280;50709;52.648;4.764;2023-02-03T09:14:42;102473.06;;;20.19;47.69
64388;BME280;50709;52.648;4.764;2023-02-03T09:17:08;102468.66;;;19.26;48.88
64388;BME280;50709;52.648;4.764;2023-02-03T09:19:34;102492.44;;;20.24;47.54
64388;BME280;50709;52.648;4.764;2023-02-03T09:21:59;102481.66;;;19.54;47.88
64388;BME280;50709;52.648;4.764;2023-02-03T09:24:24;102492.22;;;19.61;47.95
64388;BME280;50709;52.648;4.764;2023-02-03T09:26:50;102494.69;;;19.81;47.87
64388;BME280;50709;52.648;4.764;2023-02-03T09:29:16;102495.53;;;19.85;48.59
64388;BME280;50709;52.648;4.764;2023-02-03T09:31:43;102486.19;;;19.42;47.15
64388;BME280;50709;52.648;4.764;2023-02-03T09:34:11;102498.06;;;19.99;48.05
64388;BME280;50709;52.648;4.764;2023-02-03T09:36:36;102487.28;;;20.13;48.01
64388;BME280;50709;52.648;4.764;2023-02-03T09:39:01;102500.69;;;19.99;48.50
64388;BME280;50709;52.648;4.764;2023-02-03T09:41:46;102494.16;;;20.28;46.57
64388;BME280;50709;52.648;4.764;2023-02-03T09:46:57;102499.28;;;19.62;48.37
64388;BME280;50709;52.648;4.764;2023-02-03T09:49:36;102502.66;;;19.77;48.30
64388;BME280;50709;52.648;4.764;2023-02-03T09:52:08;102508.34;;;20.25;46.66
64388;BME280;50709;52.648;4.764;2023-02-03T09:54:41;102505.34;;;19.74;48.98
64388;BME280;50709;52.648;4.764;2023-02-03T09:57:22;102519.28;;;19.94;48.66
64388;BME280;50709;52.648;4.764;2023-02-03T09:59:48;102521.69;;;20.17;48.24
64388;BME280;50709;52.648;4.764;2023-02-03T10:02:44;102529.78;;;20.05;48.30
64388;BME280;50709;52.648;4.764;2023-02-03T10:08:29;102523.84;;;19.78;47.76
64388;BME280;50709;52.648;4.764;2023-02-03T10:18:46;102541.19;;;20.13;47.98
64388;BME280;50709;52.648;4.764;2023-02-03T10:21:20;102560.84;;;19.95;48.80
64388;BME280;50709;52.648;4.764;2023-02-03T10:23:48;102547.59;;;19.94;48.57
64388;BME280;50709;52.648;4.764;2023-02-03T10:26:21;102546.53;;;20.10;47.11
64388;BME280;50709;52.648;4.764;2023-02-03T10:28:53;102570.69;;;19.84;48.94
64388;BME280;50709;52.648;4.764;2023-02-03T10:31:21;102533.78;;;19.55;49.45
64388;BME280;50709;52.648;4.764;2023-02-03T10:33:58;102561.03;;;19.67;49.58
64388;BME280;50709;52.648;4.764;2023-02-03T10:36:56;102573.91;;;20.15;46.72
64388;BME280;50709;52.648;4.764;2023-02-03T10:39:35;102568.63;;;20.12;48.18
64388;BME280;50709;52.648;4.764;2023-02-03T10:42:03;102583.16;;;20.58;47.45
64388;BME280;50709;52.648;4.764;2023-02-03T10:47:01;102586.28;;;20.13;48.48
64388;BME280;50709;52.648;4.764;2023-02-03T10:49:27;102590.13;;;19.81;48.62
64388;BME280;50709;52.648;4.764;2023-02-03T10:51:56;102608.75;;;19.67;49.19
64388;BME280;50709;52.648;4.764;2023-02-03T10:54:28;102605.84;;;20.03;48.59
64388;BME280;50709;52.648;4.764;2023-02-03T10:57:02;102597.09;;;19.92;49.04
64388;BME280;50709;52.648;4.764;2023-02-03T10:59:30;102588.38;;;19.77;48.76
64388;BME280;50709;52.648;4.764;2023-02-03T11:01:56;102564.72;;;19.49;49.33
64388;BME280;50709;52.648;4.764;2023-02-03T11:04:26;102571.53;;;19.86;47.56
64388;BME280;50709;52.648;4.764;2023-02-03T11:07:03;102550.94;;;20.11;47.92
64388;BME280;50709;52.648;4.764;2023-02-03T11:09:34;102630.31;;;20.33;48.15
64388;BME280;50709;52.648;4.764;2023-02-03T11:14:52;102605.19;;;19.75;49.12
64388;BME280;50709;52.648;4.764;2023-02-03T11:17:21;102644.56;;;20.23;48.33
64388;BME280;50709;52.648;4.764;2023-02-03T11:19:49;102646.44;;;20.11;48.38
64388;BME280;50709;52.648;4.764;2023-02-03T11:24:54;102619.06;;;20.08;48.43
64388;BME280;50709;52.648;4.764;2023-02-03T11:27:21;102637.53;;;20.17;48.44
64388;BME280;50709;52.648;4.764;2023-02-03T11:29:52;102637.88;;;19.72;49.58
64388;BME280;50709;52.648;4.764;2023-02-03T11:32:39;102626.34;;;19.82;49.00
64388;BME280;50709;52.648;4.764;2023-02-03T11:35:13;102650.25;;;19.72;48.91
64388;BME280;50709;52.648;4.764;2023-02-03T11:37:42;102648.94;;;18.84;51.33
64388;BME280;50709;52.648;4.764;2023-02-03T11:42:41;102639.81;;;16.55;56.12
64388;BME280;50709;52.648;4.764;2023-02-03T11:48:01;102641.81;;;16.90;57.37
64388;BME280;50709;52.648;4.764;2023-02-03T11:50:37;102643.56;;;16.95;58.12
64388;BME280;50709;52.648;4.764;2023-02-03T11:53:28;102654.06;;;16.83;58.28
64388;BME280;50709;52.648;4.764;2023-02-03T11:56:08;102650.56;;;16.87;57.62
64388;BME280;50709;52.648;4.764;2023-02-03T11:58:53;102644.56;;;17.31;56.59
64388;BME280;50709;52.648;4.764;2023-02-03T12:36:58;102698.97;;;16.92;56.75
64388;BME280;50709;52.648;4.764;2023-02-03T12:40:00;102696.47;;;17.20;54.84
64388;BME280;50709;52.648;4.764;2023-02-03T12:42:40;102704.53;;;17.66;54.82
64388;BME280;50709;52.648;4.764;2023-02-03T12:45:11;102695.75;;;17.80;53.87
64388;BME280;50709;52.648;4.764;2023-02-03T12:50:20;102717.78;;;17.83;54.48
64388;BME280;50709;52.648;4.764;2023-02-03T12:52:54;102722.19;;;17.83;54.11
64388;BME280;50709;52.648;4.764;2023-02-03T12:55:40;102730.06;;;17.63;54.96
64388;BME280;50709;52.648;4.764;2023-02-03T12:58:27;102738.00;;;17.64;55.14
64388;BME280;50709;52.648;4.764;2023-02-03T13:01:04;102731.84;;;17.69;54.72
64388;BME280;50709;52.648;4.764;2023-02-03T13:03:41;102739.69;;;17.50;55.00
64388;BME280;50709;52.648;4.764;2023-02-03T13:06:33;102735.19;;;17.18;54.70
64388;BME280;50709;52.648;4.764;2023-02-03T13:09:42;102737.94;;;17.46;55.43
64388;BME280;50709;52.648;4.764;2023-02-03T13:12:40;102739.66;;;17.35;55.61
64388;BME280;50709;52.648;4.764;2023-02-03T13:15:18;102742.25;;;17.27;55.77
64388;BME280;50709;52.648;4.764;2023-02-03T13:20:25;102726.31;;;17.02;56.68
64388;BME280;50709;52.648;4.764;2023-02-03T13:22:53;102735.72;;;16.63;56.02
64388;BME280;50709;52.648;4.764;2023-02-03T13:25:45;102745.50;;;16.79;56.47
64388;BME280;50709;52.648;4.764;2023-02-03T13:34:13;102750.97;;;17.09;55.77
64388;BME280;50709;52.648;4.764;2023-02-03T13:39:34;102707.50;;;16.51;56.28
64388;BME280;50709;52.648;4.764;2023-02-03T13:42:27;102752.25;;;16.43;56.65
64388;BME280;50709;52.648;4.764;2023-02-03T13:45:27;102748.00;;;16.59;56.29
64388;BME280;50709;52.648;4.764;2023-02-03T13:47:59;102743.53;;;16.51;57.30
64388;BME280;50709;52.648;4.764;2023-02-03T13:50:29;102750.47;;;16.42;57.22
64388;BME280;50709;52.648;4.764;2023-02-03T13:52:59;102746.03;;;16.32;57.55
64388;BME280;50709;52.648;4.764;2023-02-03T13:55:39;102755.75;;;16.39;57.34
64388;BME280;50709;52.648;4.764;2023-02-03T13:58:19;102737.25;;;16.33;57.40
64388;BME280;50709;52.648;4.764;2023-02-03T14:04:00;102746.19;;;16.52;56.40
64388;BME280;50709;52.648;4.764;2023-02-03T14:12:18;102762.69;;;16.31;56.32
64388;BME280;50709;52.648;4.764;2023-02-03T14:19:59;102761.69;;;16.18;56.55
64388;BME280;50709;52.648;4.764;2023-02-03T14:22:25;102758.19;;;16.16;56.99
64388;BME280;50709;52.648;4.764;2023-02-03T14:24:55;102764.28;;;16.12;57.45
64388;BME280;50709;52.648;4.764;2023-02-03T14:27:27;102738.66;;;15.94;56.72
64388;BME280;50709;52.648;4.764;2023-02-03T14:32:50;102766.84;;;16.04;57.65
64388;BME280;50709;52.648;4.764;2023-02-03T14:35:18;102750.16;;;16.05;56.71
64388;BME280;50709;52.648;4.764;2023-02-03T14:37:53;102770.38;;;16.05;56.27
64388;BME280;50709;52.648;4.764;2023-02-03T15:00:00;102789.34;;;15.77;57.91
64388;BME280;50709;52.648;4.764;2023-02-03T15:02:28;102785.06;;;15.83;58.19
64388;BME280;50709;52.648;4.764;2023-02-03T15:07:45;102801.53;;;15.68;58.45
64388;BME280;50709;52.648;4.764;2023-02-03T15:10:22;102751.91;;;15.29;59.06
64388;BME280;50709;52.648;4.764;2023-02-03T15:12:50;102781.91;;;15.42;57.85
64388;BME280;50709;52.648;4.764;2023-02-03T15:15:22;102805.63;;;15.44;58.22
64388;BME280;50709;52.648;4.764;2023-02-03T15:17:53;102807.63;;;15.62;58.01
64388;BME280;50709;52.648;4.764;2023-02-03T15:20:26;102824.34;;;15.66;58.23
64388;BME280;50709;52.648;4.764;2023-02-03T15:22:53;102809.72;;;15.22;57.61
64388;BME280;50709;52.648;4.764;2023-02-03T15:25:21;102815.34;;;15.48;59.41